Weather History for KPWT - October, 2012

Change the Weather History Date:

Tuesday, October 16, 2012

  Actual Average Record
Temperature  
Mean Temperature 48 °F -  
Max Temperature 60 °F 56 °F 73 °F (2002)
Min Temperature 35 °F 41 °F 30 °F (1996)
Degree Days  
Heating Degree Days 16    
Moisture  
Dew Point 40 °F    
Average Humidity 70    
Maximum Humidity 88    
Minimum Humidity 45    
Precipitation  
Precipitation 0.41 in - - ()
Sea Level Pressure  
Sea Level Pressure 30.00 in    
Wind  
Wind Speed 12 mph (SSW)    
Max Wind Speed 21 mph    
Max Gust Speed 28 mph    
Visibility 10 miles    
Events      
Averages and records for this station are not official NWS values.
T = Trace of Precipitation, MM = Missing Value Source: NWS Daily Summary

Daily Weather History Graph

Daily Weather History Graph

Search for Another Location

Airport or City:

Trip Planner

Search our weather history database for the weather conditions in past years. The results will help you decide how hot, cold, wet, or windy it might be!

Date:

Astronomy

Oct. 16, 2012 Rise Set
Actual Time 7:32 AM PDT 6:20 PM PDT
Civil Twilight 7:00 AM PDT 6:51 PM PDT
Nautical Twilight 6:25 AM PDT 7:26 PM PDT
Astronomical Twilight 5:49 AM PDT 8:02 PM PDT
Moon 9:10 AM PDT (10/16) 6:58 PM PDT (10/16)
Length of Visible Light 11h 50m
Length of Day
10h 48m
New Moon, 2% of the Moon is Illuminated
Oct 16
New Moon
Oct 21
First Quarter
Oct 29
Full
Nov 6
Last Quarter
Nov 13
New

Hourly Weather History & Observations

Time (PDT) Temp. Windchill Dew Point Humidity Pressure Visibility Wind Dir Wind Speed Gust Speed Precip Events Conditions
12:15 AM 55.4 °F - 51.8 °F 88% 29.60 in 10.0 mi South 16.1 mph 20.7 mph N/A   Clear
12:35 AM 53.6 °F - 50.0 °F 88% 29.61 in 10.0 mi South 15.0 mph 21.9 mph N/A   Partly Cloudy
12:55 AM 53.6 °F - 50.0 °F 88% 29.62 in 10.0 mi South 13.8 mph 24.2 mph N/A   Partly Cloudy
1:15 AM 53.6 °F - 48.2 °F 82% 29.62 in 10.0 mi South 18.4 mph 26.5 mph N/A   Clear
1:35 AM 53.6 °F - 48.2 °F 82% 29.62 in 10.0 mi South 15.0 mph 23.0 mph N/A   Clear
1:55 AM 51.8 °F - 48.2 °F 88% 29.64 in 10.0 mi South 13.8 mph 23.0 mph N/A   Clear
2:15 AM 51.8 °F - 46.4 °F 82% 29.64 in 10.0 mi South 15.0 mph 21.9 mph N/A   Partly Cloudy
2:35 AM 51.8 °F - 46.4 °F 82% 29.65 in 10.0 mi South 15.0 mph 23.0 mph N/A   Clear
2:55 AM 50.0 °F - 46.4 °F 87% 29.66 in 10.0 mi South 15.0 mph 19.6 mph N/A   Clear
3:15 AM 50.0 °F - 44.6 °F 82% 29.66 in 10.0 mi SSW 15.0 mph 23.0 mph N/A   Clear
3:35 AM 50.0 °F - 44.6 °F 82% 29.69 in 10.0 mi SSW 12.7 mph 24.2 mph N/A   Clear
3:55 AM 50.0 °F - 44.6 °F 82% 29.71 in 10.0 mi SSW 11.5 mph 18.4 mph N/A   Clear
4:15 AM 50.0 °F - 44.6 °F 82% 29.72 in 10.0 mi South 15.0 mph 24.2 mph N/A   Clear
4:35 AM 48.2 °F - 44.6 °F 87% 29.73 in 10.0 mi SSW 11.5 mph - N/A   Clear
5:15 AM 48.2 °F - 42.8 °F 82% 29.75 in 10.0 mi SSW 13.8 mph - N/A   Clear
5:35 AM 48.2 °F - 42.8 °F 82% 29.76 in 10.0 mi SSW 18.4 mph 21.9 mph N/A   Clear
5:55 AM 48.2 °F - 42.8 °F 82% 29.78 in 10.0 mi SSW 15.0 mph 25.3 mph N/A   Clear
6:15 AM 48.2 °F - 41.0 °F 76% 29.80 in 10.0 mi SSW 11.5 mph - N/A   Clear
6:35 AM 46.4 °F 42.4 °F 39.2 °F 76% 29.82 in 10.0 mi South 8.1 mph - N/A   Clear
6:55 AM 46.4 °F - 37.4 °F 71% 29.85 in 10.0 mi Calm Calm - N/A   Clear
7:15 AM 44.6 °F 41.4 °F 37.4 °F 76% 29.86 in 10.0 mi East 5.8 mph - N/A   Clear
7:35 AM 42.8 °F 38.6 °F 37.4 °F 81% 29.87 in 10.0 mi SW 6.9 mph - N/A   Clear
7:55 AM 42.8 °F 38.0 °F 35.6 °F 76% 29.89 in 10.0 mi SSW 8.1 mph - N/A   Clear
8:15 AM 44.6 °F 40.7 °F 37.4 °F 76% 29.92 in 10.0 mi South 6.9 mph - N/A   Clear
8:35 AM 48.2 °F - 37.4 °F 66% 29.93 in 10.0 mi South 6.9 mph - N/A   Clear
8:55 AM 48.2 °F - 39.2 °F 71% 29.95 in 10.0 mi South 8.1 mph - N/A   Clear
9:15 AM 50.0 °F - 39.2 °F 66% 29.97 in 10.0 mi South 8.1 mph - N/A   Clear
9:35 AM 51.8 °F - 41.0 °F 67% 29.98 in 10.0 mi SSW 6.9 mph - N/A   Clear
9:55 AM 53.6 °F - 41.0 °F 62% 30.00 in 10.0 mi SSW 5.8 mph - N/A   Clear
10:15 AM 53.6 °F - 39.2 °F 58% 30.02 in 10.0 mi SSW 6.9 mph - N/A   Clear
10:35 AM 55.4 °F - 41.0 °F 58% 30.03 in 10.0 mi SSW 16.1 mph 20.7 mph N/A   Clear
10:55 AM 55.4 °F - 42.8 °F 63% 30.05 in 10.0 mi SSW 13.8 mph - N/A   Clear
11:15 AM 57.2 °F - 42.8 °F 59% 30.05 in 10.0 mi SSW 16.1 mph 20.7 mph N/A   Clear
11:35 AM 57.2 °F - 42.8 °F 59% 30.05 in 10.0 mi SSW 15.0 mph 23.0 mph N/A   Clear
11:55 AM 57.2 °F - 41.0 °F 55% 30.06 in 10.0 mi SSW 20.7 mph 24.2 mph N/A   Clear
12:15 PM 57.2 °F - 41.0 °F 55% 30.07 in 10.0 mi SW 18.4 mph 24.2 mph N/A   Clear
12:35 PM 57.2 °F - 42.8 °F 59% 30.08 in 10.0 mi SSW 19.6 mph 27.6 mph N/A   Clear
1:15 PM 59.0 °F - 41.0 °F 51% 30.08 in 10.0 mi SSW 16.1 mph 21.9 mph N/A   Clear
1:35 PM 60.8 °F - 41.0 °F 48% 30.09 in 10.0 mi SSW 12.7 mph 18.4 mph N/A   Clear
1:55 PM 60.8 °F - 39.2 °F 45% 30.09 in 10.0 mi SSW 15.0 mph 21.9 mph N/A   Clear
2:15 PM 57.2 °F - 39.2 °F 51% 30.11 in 10.0 mi SW 16.1 mph 23.0 mph N/A   Scattered Clouds
2:35 PM 57.2 °F - 37.4 °F 48% 30.11 in 10.0 mi SW 11.5 mph - N/A   Mostly Cloudy
2:55 PM 55.4 °F - 39.2 °F 54% 30.12 in 10.0 mi SSW 17.3 mph 24.2 mph N/A   Overcast
3:15 PM 57.2 °F - 41.0 °F 55% 30.10 in 10.0 mi SSW 17.3 mph 23.0 mph N/A   Mostly Cloudy
3:35 PM 55.4 °F - 39.2 °F 54% 30.12 in 10.0 mi SSW 16.1 mph - N/A   Scattered Clouds
3:55 PM 57.2 °F - 39.2 °F 51% 30.13 in 10.0 mi South 16.1 mph 20.7 mph N/A   Partly Cloudy
4:15 PM 57.2 °F - 39.2 °F 51% 30.14 in 10.0 mi SSW 16.1 mph 20.7 mph N/A   Clear
4:35 PM 57.2 °F - 39.2 °F 51% 30.14 in 10.0 mi SSW 12.7 mph 19.6 mph N/A   Clear
4:55 PM 57.2 °F - 37.4 °F 48% 30.15 in 10.0 mi SSW 15.0 mph 19.6 mph N/A   Clear
5:15 PM 55.4 °F - 39.2 °F 54% 30.15 in 10.0 mi SSW 11.5 mph - N/A   Clear
5:35 PM 53.6 °F - 37.4 °F 54% 30.16 in 10.0 mi SSW 8.1 mph - N/A   Clear
5:55 PM 53.6 °F - 37.4 °F 54% 30.17 in 10.0 mi SSW 5.8 mph - N/A   Clear
6:15 PM 51.8 °F - 35.6 °F 54% 30.19 in 10.0 mi SSW 8.1 mph - N/A   Clear
6:35 PM 48.2 °F - 35.6 °F 62% 30.18 in 10.0 mi SSW 8.1 mph - N/A   Clear
6:55 PM 50.0 °F - 37.4 °F 62% 30.19 in 10.0 mi SW 10.4 mph - N/A   Clear
7:15 PM 46.4 °F 44.3 °F 35.6 °F 66% 30.20 in 10.0 mi SSW 4.6 mph - N/A   Clear
7:35 PM 46.4 °F - 37.4 °F 71% 30.21 in 10.0 mi Calm Calm - N/A   Clear
7:55 PM 44.6 °F 43.1 °F 37.4 °F 76% 30.21 in 10.0 mi West 3.5 mph - N/A   Clear
8:15 PM 48.2 °F - 39.2 °F 71% 30.23 in 10.0 mi SW 9.2 mph - N/A   Clear
8:35 PM 46.4 °F 42.9 °F 37.4 °F 71% 30.23 in 10.0 mi South 6.9 mph - N/A   Clear
8:55 PM 44.6 °F - 37.4 °F 76% 30.23 in 10.0 mi Calm Calm - N/A   Clear
9:15 PM 41.0 °F - 33.8 °F 76% 30.23 in 10.0 mi Calm Calm - N/A   Clear
9:35 PM 41.0 °F - 37.4 °F 87% 30.25 in 10.0 mi Calm Calm - N/A   Clear
9:55 PM 39.2 °F - 35.6 °F 87% 30.26 in 10.0 mi Calm Calm - N/A   Clear
10:15 PM 39.2 °F - 33.8 °F 81% 30.26 in 10.0 mi Calm Calm - N/A   Clear
10:35 PM 37.4 °F - 33.8 °F 87% 30.27 in 10.0 mi Calm Calm - N/A   Clear
10:55 PM 37.4 °F - 33.8 °F 87% 30.27 in 10.0 mi Calm Calm - N/A   Clear
11:15 PM 37.4 °F - 32.0 °F 81% 30.29 in 10.0 mi Calm Calm - N/A   Clear
11:35 PM 37.4 °F - 32.0 °F 81% 30.29 in 10.0 mi Calm Calm - N/A   Clear
11:55 PM 35.6 °F - 32.0 °F 87% 30.30 in 10.0 mi Calm Calm - N/A   Clear